Terminal Aerodrome Forecast
Issued by NWS

Home | Current Version | Previous Version | Text Only | Print | Product List | Glossary On
Versions: 1 2 3 4 5 6 7 8 9 10 11 12 13 14 15 16 17
000
FTUS43 KAPX 241456 AAB
TAFMBL
TAF AMD
KMBL 241456Z 2415/2512 19008KT P6SM FEW008 OVC029
     FM241630 21009KT P6SM BKN040
     FM241800 22009KT P6SM BKN060
     FM242200 23007KT P6SM VCTS BKN050CB
     FM250200 29004KT P6SM SCT150=

USA.gov is the U.S. government's official web portal to all federal, state and local government web resources and services.